Time;durP1;ratioP1;P1;durP2;ratioP2;P2;SDS_P1;SDS_P2;PMS_P1;PMS_P2;Temp;Humidity;BMP_temperature;BMP_pressure;BME280_temperature;BME280_humidity;BME280_pressure;Samples;Min_cycle;Max_cycle;Signal;HPM_P1;HPM_P2
2022/02/19 10:37:50;;;;;;;10.60;2.83;;;;;;;17.54;34.25;100775.25;5081164;27;20450;-81
2022/02/19 10:40:36;;;;;;;8.07;2.63;;;;;;;17.25;33.95;100766.09;5060967;28;20414;-80
2022/02/19 10:43:05;;;;;;;10.27;2.95;;;;;;;17.45;33.45;100779.69;5050326;28;20538;-81
2022/02/19 10:45:32;;;;;;;10.10;3.72;;;;;;;17.65;32.50;100782.31;5059136;28;20472;-83
2022/02/19 10:48:23;;;;;;;6.75;2.25;;;;;;;16.72;32.79;100787.63;5055210;28;20406;-82
2022/02/19 10:50:49;;;;;;;11.80;3.50;;;;;;;14.36;37.57;100794.06;5059318;28;20398;-84
2022/02/19 10:53:25;;;;;;;11.85;2.90;;;;;;;12.94;40.64;100803.44;5070182;28;20413;-83
2022/02/19 10:55:53;;;;;;;9.35;2.83;;;;;;;11.61;43.81;100798.03;5082838;28;20423;-83
2022/02/19 10:58:19;;;;;;;11.10;3.20;;;;;;;10.77;45.73;100791.44;5051067;28;20893;-86
2022/02/19 11:00:44;;;;;;;12.10;2.13;;;;;;;10.61;47.20;100785.91;5074172;28;20402;-87
2022/02/19 11:03:11;;;;;;;14.60;3.50;;;;;;;10.57;47.81;100798.31;5078323;28;20401;-82
2022/02/19 11:05:38;;;;;;;11.80;3.97;;;;;;;10.21;48.60;100807.47;5057419;28;20502;-82
2022/02/19 11:08:04;;;;;;;14.95;4.30;;;;;;;10.38;48.64;100806.53;5056506;28;20394;-82
2022/02/19 11:10:29;;;;;;;7.85;2.60;;;;;;;10.83;47.28;100800.53;5058197;28;20412;-82
2022/02/19 11:12:55;;;;;;;13.30;3.47;;;;;;;10.40;47.53;100796.31;5083535;28;20445;-81
2022/02/19 11:15:23;;;;;;;13.40;4.70;;;;;;;10.36;48.29;100800.56;5061106;28;20403;-81
2022/02/19 11:17:49;;;;;;;15.50;3.30;;;;;;;10.51;48.03;100783.81;5054142;28;20890;-86
2022/02/19 11:20:16;;;;;;;20.15;3.40;;;;;;;10.54;48.32;100782.53;5067339;28;20404;-80
2022/02/19 11:22:44;;;;;;;12.55;3.97;;;;;;;10.44;48.13;100774.97;5066334;28;20397;-84
2022/02/19 11:25:20;;;;;;;15.45;4.63;;;;;;;10.00;49.22;100780.94;5052580;28;20415;-85
2022/02/19 11:27:54;;;;;;;12.18;3.88;;;;;;;9.88;49.19;100780.88;5066175;28;20731;-82
2022/02/19 11:30:20;;;;;;;26.25;3.75;;;;;;;9.43;51.09;100785.13;5057704;28;20396;-81
2022/02/19 11:32:48;;;;;;;12.68;2.90;;;;;;;9.45;50.55;100774.91;5049529;28;20390;-81
2022/02/19 11:35:30;;;;;;;21.60;4.15;;;;;;;9.52;50.98;100770.19;5061208;28;20536;-79
2022/02/19 11:37:55;;;;;;;12.27;4.13;;;;;;;9.56;50.15;100766.00;5060842;28;20455;-79
2022/02/19 11:40:23;;;;;;;16.07;5.53;;;;;;;9.64;49.45;100765.66;5053377;28;20445;-80
2022/02/19 11:42:50;;;;;;;12.35;3.67;;;;;;;9.65;48.87;100762.72;5059860;28;20397;-79
2022/02/19 11:45:25;;;;;;;10.63;4.07;;;;;;;9.62;48.33;100760.47;5056841;28;20391;-80
2022/02/19 11:48:02;;;;;;;10.50;2.75;;;;;;;9.26;49.30;100753.31;5054237;28;20401;-80
2022/02/19 11:50:29;;;;;;;9.48;2.33;;;;;;;9.32;49.37;100754.25;5046073;28;20401;-79
2022/02/19 11:53:13;;;;;;;8.77;2.40;;;;;;;9.70;49.34;100740.38;5033340;28;20766;-81
2022/02/19 11:55:40;;;;;;;8.33;2.43;;;;;;;9.85;48.85;100732.63;5077687;28;20492;-80
2022/02/19 11:58:08;;;;;;;10.35;3.05;;;;;;;10.25;48.56;100722.81;5081632;28;20401;-80
2022/02/19 12:00:51;;;;;;;9.93;2.90;;;;;;;10.78;47.34;100724.50;5033876;28;20391;-81
2022/02/19 12:03:34;;;;;;;7.40;2.65;;;;;;;10.98;45.99;100719.47;5049159;28;20416;-80
2022/02/19 12:06:26;;;;;;;7.40;2.15;;;;;;;10.58;45.25;100714.06;5042788;28;20486;-79
2022/02/19 12:09:00;;;;;;;8.70;2.60;;;;;;;10.39;44.20;100716.09;5037284;28;20799;-78
2022/02/19 12:11:26;;;;;;;10.73;2.60;;;;;;;9.99;45.30;100727.81;5052771;28;20402;-81
2022/02/19 12:13:52;;;;;;;7.63;2.10;;;;;;;10.21;45.62;100720.78;5043935;28;20405;-80
2022/02/19 12:16:44;;;;;;;8.35;2.60;;;;;;;10.18;46.44;100713.16;5043226;28;20426;-79
2022/02/19 12:19:11;;;;;;;5.35;1.80;;;;;;;10.17;46.12;100716.94;5045698;28;20399;-81
2022/02/19 12:21:44;;;;;;;5.18;2.28;;;;;;;9.87;45.69;100712.41;5057535;28;20390;-80
2022/02/19 12:24:26;;;;;;;9.17;2.43;;;;;;;10.03;45.69;100704.66;5029744;28;20902;-80
2022/02/19 12:26:54;;;;;;;8.52;2.30;;;;;;;10.27;45.93;100699.00;5029464;28;20522;-80
2022/02/19 12:29:21;;;;;;;7.30;2.47;;;;;;;10.50;45.09;100697.34;5033040;28;20417;-80
2022/02/19 12:32:02;;;;;;;6.85;2.08;;;;;;;10.82;44.99;100695.84;5037899;28;20960;-80
2022/02/19 12:34:30;;;;;;;4.97;2.42;;;;;;;10.75;44.71;100684.31;5044253;28;20414;-80
2022/02/19 12:36:57;;;;;;;7.85;1.88;;;;;;;10.71;43.87;100680.44;5031617;28;20427;-80
2022/02/19 12:39:23;;;;;;;6.97;2.38;;;;;;;10.61;44.17;100669.38;5033822;28;20433;-80
2022/02/19 12:41:52;;;;;;;7.03;2.30;;;;;;;10.43;44.86;100680.38;5035100;28;20426;-80
2022/02/19 12:44:19;;;;;;;3.42;1.67;;;;;;;10.16;45.42;100675.47;5032829;28;20413;-81
2022/02/19 12:46:52;;;;;;;6.88;2.22;;;;;;;9.90;42.89;100671.34;5039037;28;20395;-81
2022/02/19 12:49:19;;;;;;;6.22;1.92;;;;;;;9.83;42.09;100661.69;5039586;28;20923;-80
2022/02/19 12:51:59;;;;;;;5.75;1.90;;;;;;;9.72;42.45;100659.78;5064511;28;20411;-82
2022/02/19 12:54:39;;;;;;;6.20;1.87;;;;;;;9.79;42.39;100655.09;5037029;28;20411;-81
2022/02/19 12:57:06;;;;;;;6.03;1.97;;;;;;;9.71;42.46;100642.75;5048398;28;20473;-79
2022/02/19 12:59:34;;;;;;;5.25;1.20;;;;;;;9.69;42.42;100644.84;5031547;28;20407;-82
2022/02/19 13:02:02;;;;;;;4.43;1.50;;;;;;;9.57;43.29;100627.78;5049108;28;20531;-80
2022/02/19 13:04:28;;;;;;;3.22;1.30;;;;;;;9.76;43.30;100625.78;5047441;28;20393;-79
2022/02/19 13:06:53;;;;;;;3.42;1.55;;;;;;;9.80;42.82;100621.56;5042295;28;20799;-81
2022/02/19 13:09:21;;;;;;;4.20;1.45;;;;;;;9.79;42.29;100615.31;5046591;28;20406;-78
2022/02/19 13:11:49;;;;;;;4.70;1.45;;;;;;;9.78;42.66;100620.97;5058049;28;20765;-78
2022/02/19 13:14:14;;;;;;;6.28;1.85;;;;;;;9.66;43.43;100601.19;5035660;28;20399;-79
2022/02/19 13:16:40;;;;;;;4.90;1.30;;;;;;;9.57;43.94;100608.00;5045925;28;20471;-79
2022/02/19 13:19:05;;;;;;;5.60;1.87;;;;;;;9.68;44.44;100608.00;5043961;28;20419;-80
2022/02/19 13:21:30;;;;;;;3.27;1.27;;;;;;;9.65;43.68;100586.03;5031421;28;20414;-81
2022/02/19 13:23:58;;;;;;;2.40;0.63;;;;;;;9.57;42.39;100597.19;5032535;28;20429;-82
2022/02/19 13:26:32;;;;;;;4.40;1.38;;;;;;;9.57;42.50;100587.19;5038700;28;20878;-80
2022/02/19 13:28:59;;;;;;;3.77;1.03;;;;;;;9.53;42.23;100596.84;5039686;28;20433;-80
2022/02/19 13:31:29;;;;;;;4.45;0.98;;;;;;;9.40;43.27;100591.66;5033582;28;20414;-79
2022/02/19 13:33:55;;;;;;;2.25;0.98;;;;;;;9.54;43.71;100595.78;5031876;28;20414;-79
2022/02/19 13:36:21;;;;;;;4.78;1.38;;;;;;;9.68;43.67;100597.19;5040907;28;20425;-79
2022/02/19 13:38:46;;;;;;;7.60;1.63;;;;;;;9.67;42.88;100600.13;5055604;28;20893;-79
2022/02/19 13:41:12;;;;;;;5.47;1.33;;;;;;;9.70;42.03;100608.63;5085927;28;20396;-80
2022/02/19 13:43:40;;;;;;;5.18;1.60;;;;;;;9.73;43.00;100596.50;5053857;28;20393;-79
2022/02/19 13:46:17;;;;;;;4.87;1.53;;;;;;;9.70;43.79;100599.66;5052785;28;20496;-79
2022/02/19 13:48:49;;;;;;;4.67;1.50;;;;;;;9.60;42.75;100594.84;5054403;28;20405;-80
2022/02/19 13:51:14;;;;;;;3.63;1.40;;;;;;;9.72;42.67;100602.94;5073668;28;20402;-79
2022/02/19 13:53:40;;;;;;;3.93;1.30;;;;;;;9.78;43.45;100607.44;5059865;28;20392;-81
2022/02/19 13:56:09;;;;;;;5.13;1.60;;;;;;;9.78;42.73;100605.53;5058703;28;20516;-79
2022/02/19 13:58:50;;;;;;;2.35;0.82;;;;;;;9.63;43.15;100596.25;5042279;28;20449;-79
2022/02/19 14:01:17;;;;;;;2.80;1.38;;;;;;;9.75;43.29;100603.31;5061987;28;20490;-80
2022/02/19 14:03:45;;;;;;;4.75;1.30;;;;;;;9.87;43.50;100608.72;5070111;28;20403;-80
2022/02/19 14:06:32;;;;;;;3.65;2.25;;;;;;;9.96;41.92;100601.88;5054464;28;20470;-81
2022/02/19 14:09:14;;;;;;;4.57;1.40;;;;;;;10.09;42.26;100611.63;5061377;28;20397;-81
2022/02/19 14:11:47;;;;;;;3.45;1.20;;;;;;;10.11;41.93;100618.44;5035999;28;20495;-80
2022/02/19 14:14:12;;;;;;;2.05;1.20;;;;;;;10.20;41.98;100614.38;5068683;28;20405;-80
2022/02/19 14:16:37;;;;;;;3.10;1.30;;;;;;;10.20;42.10;100606.25;5056862;28;20418;-80
2022/02/19 14:19:06;;;;;;;4.13;1.27;;;;;;;10.22;41.37;100606.81;5065056;28;20406;-81
2022/02/19 14:21:32;;;;;;;2.08;0.85;;;;;;;10.10;41.84;100613.28;5061698;28;20405;-81
2022/02/19 14:24:24;;;;;;;5.28;1.80;;;;;;;10.06;42.21;100614.81;5059209;28;20871;-80
2022/02/19 14:27:09;;;;;;;4.65;1.33;;;;;;;10.05;42.29;100618.56;5061167;28;20764;-81
2022/02/19 14:29:35;;;;;;;4.80;2.20;;;;;;;10.18;41.89;100616.47;5065506;28;20954;-83
2022/02/19 14:32:02;;;;;;;5.40;1.85;;;;;;;10.19;41.88;100618.13;5077304;28;20466;-82
2022/02/19 14:34:28;;;;;;;3.20;1.20;;;;;;;10.18;41.81;100618.34;5036288;28;20407;-81
2022/02/19 14:36:53;;;;;;;4.07;1.47;;;;;;;10.18;42.25;100618.34;5051227;28;20440;-81
2022/02/19 14:39:18;;;;;;;2.57;1.30;;;;;;;10.15;41.95;100613.41;5056413;28;20407;-81
2022/02/19 14:41:44;;;;;;;3.40;1.10;;;;;;;10.21;42.23;100617.88;5037449;28;20479;-81
2022/02/19 14:44:09;;;;;;;4.97;2.43;;;;;;;10.17;42.84;100617.56;5056975;28;20833;-80
2022/02/19 14:46:34;;;;;;;2.97;1.13;;;;;;;10.23;42.59;100615.78;5055095;28;20473;-81
2022/02/19 14:48:59;;;;;;;4.27;1.93;;;;;;;10.23;43.17;100619.31;5062848;28;20446;-81
2022/02/19 14:51:26;;;;;;;1.70;0.80;;;;;;;10.01;42.93;100614.72;5051771;28;20446;-82
2022/02/19 14:53:52;;;;;;;3.05;1.38;;;;;;;10.09;42.17;100606.22;5055904;28;20392;-80
2022/02/19 14:56:18;;;;;;;3.30;1.17;;;;;;;10.09;42.43;100600.81;5058033;28;20408;-83
2022/02/19 14:58:43;;;;;;;4.40;1.60;;;;;;;9.95;42.64;100604.81;5064420;28;20423;-81
2022/02/19 15:01:10;;;;;;;4.07;1.60;;;;;;;10.12;42.95;100611.16;5061839;28;20443;-81
2022/02/19 15:03:35;;;;;;;4.82;1.83;;;;;;;9.88;42.94;100600.34;5051367;28;20741;-82
2022/02/19 15:06:00;;;;;;;5.53;2.10;;;;;;;9.82;43.41;100605.88;5066482;28;20441;-84
2022/02/19 15:08:27;;;;;;;2.97;1.37;;;;;;;9.58;43.80;100601.56;5061648;28;20405;-80
2022/02/19 15:10:53;;;;;;;4.90;1.88;;;;;;;9.69;43.99;100598.84;5045517;28;20414;-79
2022/02/19 15:13:19;;;;;;;3.20;1.73;;;;;;;9.74;44.08;100604.38;5056986;28;20754;-80
2022/02/19 15:15:46;;;;;;;6.03;1.77;;;;;;;9.67;44.15;100606.38;5061379;28;20844;-79
2022/02/19 15:18:11;;;;;;;4.80;2.40;;;;;;;9.84;43.89;100604.63;5052606;28;20400;-80
2022/02/19 15:20:37;;;;;;;4.73;2.73;;;;;;;10.07;43.94;100600.22;5061109;28;20419;-79
2022/02/19 15:23:02;;;;;;;5.07;2.57;;;;;;;10.04;44.09;100598.00;5064108;28;20407;-79
2022/02/19 15:25:27;;;;;;;3.33;1.40;;;;;;;9.84;44.29;100599.19;5056243;28;20409;-79
2022/02/19 15:27:53;;;;;;;4.00;1.80;;;;;;;9.91;44.47;100602.59;5071595;28;20479;-79
2022/02/19 15:30:18;;;;;;;4.27;1.70;;;;;;;9.80;44.74;100597.19;5041221;28;20394;-78
2022/02/19 15:32:43;;;;;;;6.30;1.60;;;;;;;9.76;44.64;100590.59;5052622;28;20401;-78
2022/02/19 15:35:10;;;;;;;4.57;2.17;;;;;;;9.76;44.99;100591.44;5038793;28;20398;-79
2022/02/19 15:37:36;;;;;;;8.13;2.67;;;;;;;9.65;45.35;100594.16;5060856;28;20775;-79
2022/02/19 15:40:03;;;;;;;6.47;3.65;;;;;;;9.66;44.93;100595.78;5063442;28;20445;-79
2022/02/19 15:42:30;;;;;;;4.10;2.13;;;;;;;9.67;44.70;100595.56;5065833;28;20399;-79
2022/02/19 15:44:56;;;;;;;6.35;1.98;;;;;;;9.66;44.95;100590.38;5058366;28;20405;-80
2022/02/19 15:47:22;;;;;;;5.70;1.77;;;;;;;9.70;44.94;100580.72;5061810;28;20467;-79
2022/02/19 15:49:47;;;;;;;6.03;2.45;;;;;;;9.63;45.49;100588.13;5066775;28;20399;-79
2022/02/19 15:52:12;;;;;;;6.60;2.00;;;;;;;9.39;45.73;100590.81;5067917;28;20407;-79
2022/02/19 15:54:38;;;;;;;8.82;2.03;;;;;;;9.38;45.86;100585.66;5041147;28;20810;-79
2022/02/19 15:57:04;;;;;;;5.00;1.80;;;;;;;9.39;46.67;100581.88;5055500;28;20521;-79
2022/02/19 15:59:29;;;;;;;6.45;1.65;;;;;;;9.32;45.98;100583.88;5057671;28;20490;-79
2022/02/19 16:01:55;;;;;;;8.53;4.07;;;;;;;9.16;46.54;100582.69;5057686;28;20393;-80
2022/02/19 16:04:20;;;;;;;13.70;6.00;;;;;;;9.03;47.21;100588.28;5062763;28;20399;-79
2022/02/19 16:06:45;;;;;;;6.47;2.93;;;;;;;8.98;47.77;100580.06;5047455;28;20404;-79
2022/02/19 16:09:11;;;;;;;16.33;6.17;;;;;;;8.97;47.63;100570.31;5055544;28;20397;-79
2022/02/19 16:11:38;;;;;;;10.43;3.85;;;;;;;8.85;48.25;100575.69;5054943;28;20399;-79
2022/02/19 16:14:05;;;;;;;9.55;4.05;;;;;;;8.73;48.13;100572.13;5063624;28;20766;-79
2022/02/19 16:16:31;;;;;;;6.73;2.90;;;;;;;8.76;48.48;100562.72;5052832;28;20404;-79
2022/02/19 16:18:56;;;;;;;6.47;2.80;;;;;;;8.72;48.12;100554.28;5058029;28;20551;-78
2022/02/19 16:21:22;;;;;;;8.07;2.37;;;;;;;8.67;48.68;100558.69;5062949;28;20410;-79
2022/02/19 16:23:47;;;;;;;11.20;2.87;;;;;;;8.66;48.54;100546.25;5067550;28;20501;-79
2022/02/19 16:26:14;;;;;;;7.83;3.20;;;;;;;8.58;48.57;100536.59;5041082;28;20408;-79
2022/02/19 16:28:39;;;;;;;10.48;4.47;;;;;;;8.53;49.18;100536.44;5042109;28;20406;-78
2022/02/19 16:31:05;;;;;;;10.80;4.60;;;;;;;8.47;49.62;100540.06;5068288;28;20763;-83
2022/02/19 16:33:30;;;;;;;13.07;4.90;;;;;;;8.42;49.40;100536.41;5071840;28;20393;-78
2022/02/19 16:36:00;;;;;;;9.70;4.20;;;;;;;8.34;50.17;100534.84;5036664;28;20502;-78
2022/02/19 16:38:26;;;;;;;10.30;4.68;;;;;;;8.35;49.75;100531.09;5049525;28;21101;-79
2022/02/19 16:40:51;;;;;;;12.07;5.40;;;;;;;8.31;49.97;100530.75;5051377;28;20405;-79
2022/02/19 16:43:16;;;;;;;11.37;4.73;;;;;;;8.27;50.42;100515.19;5053539;28;20404;-78
2022/02/19 16:45:43;;;;;;;9.80;3.17;;;;;;;8.24;49.87;100515.63;5037720;28;20985;-77
2022/02/19 16:48:09;;;;;;;7.00;2.35;;;;;;;8.22;50.24;100510.47;5061145;28;20776;-80
2022/02/19 16:50:35;;;;;;;8.07;2.63;;;;;;;8.17;50.89;100506.78;5054678;28;20471;-78
2022/02/19 16:53:00;;;;;;;5.80;2.28;;;;;;;8.14;50.64;100501.84;5066346;28;20412;-78
2022/02/19 16:55:27;;;;;;;4.80;2.40;;;;;;;8.09;50.53;100507.13;5031835;28;20409;-79
2022/02/19 16:57:52;;;;;;;8.43;4.05;;;;;;;7.95;51.43;100506.47;5044270;28;20417;-78
2022/02/19 17:00:18;;;;;;;7.72;2.67;;;;;;;7.94;51.05;100503.97;5034221;28;20744;-78
2022/02/19 17:02:45;;;;;;;4.13;2.37;;;;;;;7.96;51.52;100500.03;5055860;28;20436;-78
2022/02/19 17:05:10;;;;;;;6.55;2.83;;;;;;;7.97;50.91;100507.06;5057503;28;20472;-78
2022/02/19 17:07:36;;;;;;;6.03;2.33;;;;;;;7.99;51.26;100507.66;5048639;28;20411;-78
2022/02/19 17:10:01;;;;;;;4.83;2.70;;;;;;;8.02;51.09;100501.00;5056233;28;20876;-79
2022/02/19 17:12:26;;;;;;;4.95;2.40;;;;;;;7.92;51.73;100506.09;5038552;28;20408;-78
2022/02/19 17:14:52;;;;;;;5.60;3.20;;;;;;;7.92;51.67;100514.19;5049517;28;20958;-78
2022/02/19 17:17:18;;;;;;;8.37;3.47;;;;;;;7.96;51.72;100508.13;5030632;28;20475;-78
2022/02/19 17:19:44;;;;;;;9.45;3.30;;;;;;;7.98;51.41;100513.28;5033624;28;20413;-78
2022/02/19 17:22:09;;;;;;;9.30;3.00;;;;;;;7.87;51.80;100514.84;5070681;28;20417;-78
2022/02/19 17:24:34;;;;;;;13.33;7.27;;;;;;;7.83;51.62;100513.69;5061284;28;20411;-78
2022/02/19 17:27:00;;;;;;;4.60;2.40;;;;;;;7.69;52.09;100520.25;5053672;28;20764;-78
2022/02/19 17:29:26;;;;;;;7.15;2.35;;;;;;;7.61;52.72;100529.47;5055312;28;20409;-78
2022/02/19 17:31:51;;;;;;;5.50;2.50;;;;;;;7.57;52.56;100528.28;5051247;28;20433;-78
2022/02/19 17:34:16;;;;;;;9.67;3.57;;;;;;;7.58;52.05;100529.09;5045171;28;20453;-78
2022/02/19 17:36:42;;;;;;;9.57;4.83;;;;;;;7.60;51.89;100519.75;5052077;28;20465;-78
2022/02/19 17:39:07;;;;;;;10.13;6.40;;;;;;;7.60;52.09;100516.22;5058467;28;20462;-78
2022/02/19 17:41:33;;;;;;;12.00;4.57;;;;;;;7.53;52.46;100521.69;5055408;28;20395;-78
2022/02/19 17:44:00;;;;;;;16.52;8.43;;;;;;;7.53;52.66;100526.25;5044244;28;20405;-78
2022/02/19 17:46:25;;;;;;;25.48;12.35;;;;;;;7.52;52.60;100527.28;5042612;28;20409;-78
2022/02/19 17:48:50;;;;;;;15.43;7.40;;;;;;;7.45;52.50;100527.34;5053985;28;20482;-78
2022/02/19 17:51:16;;;;;;;11.20;6.10;;;;;;;7.42;52.72;100521.59;5065672;28;20401;-79
2022/02/19 17:53:41;;;;;;;19.58;9.02;;;;;;;7.48;52.63;100535.00;5047200;28;20417;-79
2022/02/19 17:56:07;;;;;;;18.53;9.43;;;;;;;7.47;52.35;100527.97;5034192;28;20414;-79
2022/02/19 17:58:32;;;;;;;14.53;6.73;;;;;;;7.47;51.94;100525.28;5046432;28;20500;-79
2022/02/19 18:00:58;;;;;;;30.55;16.08;;;;;;;7.38;52.30;100520.38;5045189;28;20418;-79
2022/02/19 18:03:24;;;;;;;15.70;6.93;;;;;;;7.38;52.51;100517.69;5044352;28;20944;-79
2022/02/19 18:05:49;;;;;;;9.20;4.60;;;;;;;7.38;52.22;100520.38;5045425;28;20421;-79
2022/02/19 18:08:14;;;;;;;9.90;5.77;;;;;;;7.30;52.26;100516.94;5046494;28;20492;-79
2022/02/19 18:10:41;;;;;;;14.50;5.13;;;;;;;7.22;52.01;100522.59;5035558;28;20478;-79
2022/02/19 18:13:07;;;;;;;17.52;6.43;;;;;;;7.23;52.53;100526.13;5033246;28;20432;-79
2022/02/19 18:15:32;;;;;;;13.70;6.05;;;;;;;7.23;52.40;100531.53;5043739;28;20409;-78
2022/02/19 18:17:58;;;;;;;8.63;3.90;;;;;;;7.30;52.08;100525.03;5063056;28;20500;-79
2022/02/19 18:20:24;;;;;;;10.52;4.78;;;;;;;7.30;52.08;100526.91;5043185;28;20415;-79
2022/02/19 18:22:49;;;;;;;7.77;4.37;;;;;;;7.26;52.42;100526.50;5028888;28;20410;-79
2022/02/19 18:25:16;;;;;;;10.73;4.50;;;;;;;7.29;52.15;100525.25;5031643;28;20479;-79
2022/02/19 18:27:45;;;;;;;6.63;3.00;;;;;;;7.30;51.90;100535.81;5031195;28;20419;-78
2022/02/19 18:30:11;;;;;;;13.48;7.68;;;;;;;7.30;52.83;100535.81;5044991;28;20419;-79
2022/02/19 18:32:37;;;;;;;7.65;3.70;;;;;;;7.28;52.61;100529.81;5046555;28;20491;-79
2022/02/19 18:35:05;;;;;;;7.03;3.30;;;;;;;7.30;52.33;100532.28;5050658;28;20933;-79
2022/02/19 18:37:30;;;;;;;5.60;2.17;;;;;;;7.31;52.81;100531.22;5055716;28;20429;-78
2022/02/19 18:39:56;;;;;;;7.10;2.63;;;;;;;7.36;52.21;100528.69;5052731;28;20435;-78
2022/02/19 18:42:21;;;;;;;6.00;2.40;;;;;;;7.34;52.28;100521.88;5056684;28;20405;-79
2022/02/19 18:44:47;;;;;;;5.47;2.30;;;;;;;7.41;52.01;100528.03;5045496;28;20504;-79
2022/02/19 18:47:12;;;;;;;7.77;2.40;;;;;;;7.46;51.63;100523.63;5065456;28;20436;-78
2022/02/19 18:49:37;;;;;;;6.10;2.57;;;;;;;7.43;51.56;100518.69;5057223;28;20408;-78
2022/02/19 18:52:03;;;;;;;6.33;3.63;;;;;;;7.46;50.82;100512.00;5039509;28;20417;-79
2022/02/19 18:54:30;;;;;;;5.35;2.42;;;;;;;7.46;51.14;100510.16;5052392;28;20405;-78
2022/02/19 18:56:56;;;;;;;7.05;2.40;;;;;;;7.49;51.14;100506.16;5039347;28;20414;-78
2022/02/19 18:59:21;;;;;;;6.67;2.23;;;;;;;7.50;51.20;100492.47;5069194;28;20404;-78
2022/02/19 19:01:46;;;;;;;6.70;2.43;;;;;;;7.43;50.77;100485.50;5044937;28;20422;-78
2022/02/19 19:04:13;;;;;;;6.73;1.97;;;;;;;7.43;50.84;100488.19;5045362;28;20403;-78
2022/02/19 19:06:39;;;;;;;8.57;3.25;;;;;;;7.51;49.88;100479.81;5069674;28;20542;-78
2022/02/19 19:09:08;;;;;;;7.00;2.27;;;;;;;7.49;50.13;100476.50;5044114;28;20856;-78
2022/02/19 19:11:34;;;;;;;5.75;2.65;;;;;;;7.48;50.48;100464.06;5076826;28;20411;-78
2022/02/19 19:13:59;;;;;;;5.07;2.40;;;;;;;7.42;50.12;100460.41;5043429;28;20461;-78
2022/02/19 19:16:24;;;;;;;5.82;2.47;;;;;;;7.37;50.15;100456.75;5066342;28;20442;-78
2022/02/19 19:18:51;;;;;;;5.93;2.13;;;;;;;7.40;50.60;100453.59;5053889;28;20401;-78
2022/02/19 19:21:18;;;;;;;9.20;2.13;;;;;;;7.45;49.63;100456.44;5060197;28;20408;-79
2022/02/19 19:23:44;;;;;;;5.45;2.08;;;;;;;7.43;50.05;100447.75;5059668;28;20414;-78
2022/02/19 19:26:09;;;;;;;4.93;2.00;;;;;;;7.48;49.15;100445.19;5053866;28;20401;-78
2022/02/19 19:28:35;;;;;;;4.07;1.50;;;;;;;7.51;49.67;100450.16;5071285;28;20882;-78
2022/02/19 19:31:01;;;;;;;5.93;2.13;;;;;;;7.58;49.13;100445.50;5070050;28;20840;-78
2022/02/19 19:33:28;;;;;;;4.70;1.92;;;;;;;7.59;49.30;100436.34;5060704;28;20399;-79
2022/02/19 19:35:54;;;;;;;5.45;2.10;;;;;;;7.62;48.54;100438.59;5053907;28;20439;-78
2022/02/19 19:38:20;;;;;;;5.90;2.07;;;;;;;7.56;48.90;100432.25;5058382;28;20413;-81
2022/02/19 19:40:46;;;;;;;6.87;2.20;;;;;;;7.57;49.47;100431.22;5068641;28;20510;-81
2022/02/19 19:43:12;;;;;;;6.77;2.17;;;;;;;7.49;49.13;100417.19;5054250;28;20432;-78
2022/02/19 19:45:37;;;;;;;5.43;2.10;;;;;;;7.48;48.45;100415.53;5049606;28;20412;-79
2022/02/19 19:48:03;;;;;;;4.93;1.83;;;;;;;7.50;48.97;100414.28;5049192;28;20460;-79
2022/02/19 19:50:28;;;;;;;6.88;2.42;;;;;;;7.48;48.93;100421.75;5051567;28;20418;-78
2022/02/19 19:52:54;;;;;;;11.25;5.10;;;;;;;7.48;49.01;100429.84;5058769;28;20440;-77
2022/02/19 19:55:19;;;;;;;11.47;5.17;;;;;;;7.50;48.74;100424.22;5046464;28;20441;-79
2022/02/19 19:57:47;;;;;;;5.47;3.67;;;;;;;7.46;48.50;100420.34;5047066;28;21279;-79
2022/02/19 20:00:14;;;;;;;10.02;3.88;;;;;;;7.45;48.73;100418.69;5047832;28;20455;-77
2022/02/19 20:02:44;;;;;;;8.57;3.30;;;;;;;7.45;47.93;100416.81;5056498;28;20412;-77
2022/02/19 20:05:11;;;;;;;7.57;2.58;;;;;;;7.41;49.36;100425.59;5068335;28;20429;-77
2022/02/19 20:07:36;;;;;;;12.80;4.65;;;;;;;7.37;49.34;100419.00;5060746;28;20409;-77
2022/02/19 20:10:02;;;;;;;5.97;3.03;;;;;;;7.24;50.17;100423.47;5053763;28;21456;-77
2022/02/19 20:12:28;;;;;;;7.03;2.10;;;;;;;7.21;49.99;100421.22;5058033;28;20504;-77
2022/02/19 20:14:53;;;;;;;4.40;2.10;;;;;;;7.22;49.22;100432.84;5040303;28;20898;-77
2022/02/19 20:17:20;;;;;;;6.97;2.10;;;;;;;7.23;49.02;100429.09;5054266;28;20887;-77
2022/02/19 20:19:46;;;;;;;5.88;2.30;;;;;;;7.18;49.29;100428.94;5054922;28;20405;-78
2022/02/19 20:22:11;;;;;;;5.27;2.13;;;;;;;7.16;49.83;100425.63;5056791;28;20982;-77
2022/02/19 20:24:36;;;;;;;7.25;1.75;;;;;;;7.20;48.99;100426.84;5056374;28;20473;-78
2022/02/19 20:27:02;;;;;;;3.00;1.70;;;;;;;7.20;48.99;100430.38;5035149;28;20418;-77
2022/02/19 20:29:27;;;;;;;4.23;1.87;;;;;;;7.24;48.36;100423.47;5036654;28;20462;-77
2022/02/19 20:31:52;;;;;;;5.27;1.60;;;;;;;7.28;48.85;100426.53;5028963;28;20494;-77
2022/02/19 20:34:18;;;;;;;5.20;2.00;;;;;;;7.24;49.90;100417.28;5051038;28;20439;-77
2022/02/19 20:36:46;;;;;;;7.70;2.07;;;;;;;7.17;49.66;100422.75;5050165;28;20431;-77
2022/02/19 20:39:12;;;;;;;5.05;2.30;;;;;;;7.19;49.46;100430.59;5059769;28;20411;-77
2022/02/19 20:41:40;;;;;;;5.45;3.05;;;;;;;7.14;49.91;100435.84;5053833;28;20404;-78
2022/02/19 20:44:06;;;;;;;6.63;2.17;;;;;;;7.13;49.41;100440.41;5061348;28;20428;-77
2022/02/19 20:46:32;;;;;;;4.93;1.80;;;;;;;7.16;49.95;100434.56;5065210;28;20396;-77
2022/02/19 20:48:58;;;;;;;6.03;1.83;;;;;;;7.10;49.93;100421.16;5039166;28;20397;-77
2022/02/19 20:51:23;;;;;;;4.80;2.17;;;;;;;7.18;48.97;100423.53;5045724;28;20920;-78
2022/02/19 20:53:48;;;;;;;5.57;1.90;;;;;;;7.21;48.86;100432.00;5076476;28;20439;-77
2022/02/19 20:56:13;;;;;;;4.87;1.93;;;;;;;7.17;48.87;100417.34;5062059;28;20884;-78
2022/02/19 20:58:41;;;;;;;6.43;2.30;;;;;;;7.15;49.39;100405.94;5067452;28;20387;-78
2022/02/19 21:01:07;;;;;;;5.30;1.92;;;;;;;7.12;49.29;100408.25;5066634;28;20876;-81
2022/02/19 21:03:32;;;;;;;6.50;2.30;;;;;;;7.13;48.86;100415.31;5055401;28;20455;-77
2022/02/19 21:05:57;;;;;;;5.90;1.83;;;;;;;7.11;49.52;100415.53;5035444;28;20398;-78
2022/02/19 21:08:23;;;;;;;5.37;2.00;;;;;;;7.14;49.30;100409.72;5041461;28;20399;-78
2022/02/19 21:10:50;;;;;;;4.97;1.95;;;;;;;7.14;49.24;100415.09;5060373;28;20415;-78
2022/02/19 21:13:16;;;;;;;7.10;2.45;;;;;;;7.17;49.42;100421.91;5063488;28;20430;-78
2022/02/19 21:15:41;;;;;;;7.93;2.13;;;;;;;7.11;49.67;100422.81;5070646;28;20410;-78
2022/02/19 21:18:07;;;;;;;7.67;1.80;;;;;;;7.02;49.74;100413.34;5059095;28;20401;-78
2022/02/19 21:20:35;;;;;;;5.53;2.33;;;;;;;7.04;50.37;100408.56;5068996;28;20494;-78
2022/02/19 21:23:04;;;;;;;9.95;2.78;;;;;;;6.97;50.77;100419.41;5069061;28;20405;-78
2022/02/19 21:25:30;;;;;;;5.57;1.83;;;;;;;7.07;50.16;100424.28;5065879;28;20490;-78
2022/02/19 21:27:55;;;;;;;6.43;2.97;;;;;;;7.09;50.34;100422.19;5060588;28;20482;-78
2022/02/19 21:30:21;;;;;;;3.55;2.30;;;;;;;7.02;50.65;100424.13;5065413;28;20770;-77
2022/02/19 21:32:46;;;;;;;6.63;2.93;;;;;;;7.02;50.78;100424.94;5051249;28;20394;-78
2022/02/19 21:35:14;;;;;;;6.53;2.17;;;;;;;7.08;50.34;100426.75;5055533;28;20407;-78
2022/02/19 21:37:39;;;;;;;9.50;3.05;;;;;;;7.09;50.70;100425.72;5064454;28;20477;-78
2022/02/19 21:40:07;;;;;;;7.67;2.90;;;;;;;7.09;51.12;100430.28;5053418;28;20483;-78
2022/02/19 21:42:33;;;;;;;5.63;2.53;;;;;;;7.17;50.50;100417.34;5052387;28;20390;-78
2022/02/19 21:44:59;;;;;;;7.03;2.88;;;;;;;7.14;51.05;100403.50;5052333;28;20404;-78
2022/02/19 21:47:24;;;;;;;9.10;3.53;;;;;;;7.16;51.12;100414.88;5063343;28;20867;-78
2022/02/19 21:49:50;;;;;;;8.43;3.10;;;;;;;7.14;50.70;100415.09;5067926;28;20391;-78
2022/02/19 21:52:16;;;;;;;4.73;2.27;;;;;;;7.18;50.81;100415.44;5038648;28;20392;-78
2022/02/19 21:54:41;;;;;;;7.07;2.28;;;;;;;7.27;51.15;100411.44;5068898;28;20904;-78
2022/02/19 21:57:07;;;;;;;5.43;2.00;;;;;;;7.18;51.25;100413.59;5050710;28;20425;-78
2022/02/19 21:59:35;;;;;;;6.78;2.10;;;;;;;7.17;51.37;100413.81;5061959;28;20422;-78
2022/02/19 22:02:01;;;;;;;6.78;2.10;;;;;;;7.22;51.32;100419.34;5052031;28;20524;-79
2022/02/19 22:04:26;;;;;;;9.57;3.10;;;;;;;7.17;51.82;100420.03;5057725;28;20495;-78
2022/02/19 22:06:54;;;;;;;7.63;2.30;;;;;;;7.22;51.61;100420.19;5053096;28;20482;-78